Aérodrome :
LOGIN :

S'inscrire | Disclaimer

   EN    FR    IT 

 










Légende :    VFR   VFR Marginal   IFR   IFR Intensif   IFR Très Intensif
Visi : 
Plafond : 
>= 8 km
>= 3000ft
5 à 8 km
1000 à 3000 ft
1500m à 5 km
500 à 1000 ft
800 à 1500m
200 à 500 ft
< 800m
< 200 ft
Symboles :   Orages  Brouillard  Fortes neiges  Fortes précipitations  Vent > 20 kt
SIGMETs :   Divers  Orages  Givrage  Turbulence  Onde Orograph.  Cendres Volcan.







- Altitude de l'aérodrome : 13 ft
- Code IATA : OST


EBOS - Oostend bruges Int.

DERNIER METAR :
  • 221750Z 28009KT CAVOK 22/16 Q1016 NOSIG

METARs EXPIRÉS :
  • 221720Z 29008KT CAVOK 22/17 Q1016 NOSIG
  • 221650Z 29006KT 260V320 CAVOK 22/16 Q1016 NOSIG
  • 221620Z 32006KT 280V340 CAVOK 22/17 Q1016 NOSIG
  • 221550Z 33007KT CAVOK 22/16 Q1016 NOSIG
  • 221520Z 31007KT 270V340 CAVOK 23/16 Q1016 NOSIG

TAF TAF EBOS
Valide du 22 à 18h jusqu'au 24 à 00h UTC


221730Z 2218/2324 24005KT CAVOK
TEMPO 2303/2306 3000 BR
PROB30
TEMPO 2303/2305 0800 BCFG
Pas de NOTAMs connus pour ce terrain.



MET'MAP, la Météo Aéronautique d'un coup d'oeil ! - Copyright ORBIFLY Décembre 2007 - Disclaimer

ORBIFLY MET'MAP TEAM :

Programmation & Développement : Alexandra Zaïnal
Conception & Développement : Baudouin d'Aumeries
Co-Programmation & Développement : Marc-Olivier Méhu
Soutien technique & logistique : Manuel Goepfert

Contact : metmap@orbifly.com




SOURCES & CREDITS :

   NOAA